sensor_id;sensor_type;location;lat;lon;timestamp;pressure;altitude;pressure_sealevel;temperature;humidity
64544;BME280;50936;51.660;5.616;2023-06-19T00:02:01;100472.03;;;27.71;40.67
64544;BME280;50936;51.660;5.616;2023-06-19T00:04:28;100475.88;;;27.70;40.77
64544;BME280;50936;51.660;5.616;2023-06-19T00:06:55;100476.50;;;27.72;41.04
64544;BME280;50936;51.660;5.616;2023-06-19T00:09:21;100482.28;;;27.70;40.99
64544;BME280;50936;51.660;5.616;2023-06-19T00:11:48;100481.19;;;27.71;40.93
64544;BME280;50936;51.660;5.616;2023-06-19T00:14:15;100486.72;;;27.71;41.35
64544;BME280;50936;51.660;5.616;2023-06-19T00:16:42;100482.06;;;27.72;41.55
64544;BME280;50936;51.660;5.616;2023-06-19T00:19:08;100489.75;;;27.70;41.61
64544;BME280;50936;51.660;5.616;2023-06-19T00:21:35;100485.91;;;27.71;41.83
64544;BME280;50936;51.660;5.616;2023-06-19T00:24:04;100497.81;;;27.71;41.80
64544;BME280;50936;51.660;5.616;2023-06-19T00:26:31;100503.38;;;27.71;41.66
64544;BME280;50936;51.660;5.616;2023-06-19T00:28:58;100502.53;;;27.71;41.75
64544;BME280;50936;51.660;5.616;2023-06-19T00:31:25;100502.53;;;27.71;41.88
64544;BME280;50936;51.660;5.616;2023-06-19T00:33:54;100506.41;;;27.70;42.19
64544;BME280;50936;51.660;5.616;2023-06-19T00:36:24;100513.63;;;27.71;41.83
64544;BME280;50936;51.660;5.616;2023-06-19T00:38:52;100519.19;;;27.71;42.10
64544;BME280;50936;51.660;5.616;2023-06-19T00:41:19;100532.22;;;27.70;42.36
64544;BME280;50936;51.660;5.616;2023-06-19T00:43:46;100535.00;;;27.70;42.33
64544;BME280;50936;51.660;5.616;2023-06-19T00:46:13;100534.16;;;27.70;42.20
64544;BME280;50936;51.660;5.616;2023-06-19T00:48:40;100533.06;;;27.71;42.51
64544;BME280;50936;51.660;5.616;2023-06-19T00:51:07;100523.88;;;27.70;42.53
64544;BME280;50936;51.660;5.616;2023-06-19T00:53:34;100528.59;;;27.70;42.30
64544;BME280;50936;51.660;5.616;2023-06-19T00:56:04;100530.28;;;27.71;42.76
64544;BME280;50936;51.660;5.616;2023-06-19T00:58:32;100539.69;;;27.70;42.35
64544;BME280;50936;51.660;5.616;2023-06-19T01:00:58;100535.81;;;27.71;42.60
64544;BME280;50936;51.660;5.616;2023-06-19T01:03:55;100534.16;;;27.70;42.73
64544;BME280;50936;51.660;5.616;2023-06-19T01:06:29;100534.16;;;27.70;42.78
64544;BME280;50936;51.660;5.616;2023-06-19T01:09:08;100540.75;;;27.69;42.88
64544;BME280;50936;51.660;5.616;2023-06-19T01:11:52;100542.69;;;27.68;43.01
64544;BME280;50936;51.660;5.616;2023-06-19T01:14:40;100548.25;;;27.68;43.05
64544;BME280;50936;51.660;5.616;2023-06-19T01:17:12;100548.47;;;27.67;43.14
64544;BME280;50936;51.660;5.616;2023-06-19T01:19:39;100546.75;;;27.65;43.33
64544;BME280;50936;51.660;5.616;2023-06-19T01:22:06;100543.13;;;27.65;43.27
64544;BME280;50936;51.660;5.616;2023-06-19T01:24:34;100554.00;;;27.67;43.41
64544;BME280;50936;51.660;5.616;2023-06-19T01:27:01;100555.06;;;27.65;43.52
64544;BME280;50936;51.660;5.616;2023-06-19T01:29:29;100555.06;;;27.65;43.64
64544;BME280;50936;51.660;5.616;2023-06-19T01:32:04;100560.63;;;27.65;43.65
64544;BME280;50936;51.660;5.616;2023-06-19T01:34:33;100558.94;;;27.64;43.50
64544;BME280;50936;51.660;5.616;2023-06-19T01:37:03;100552.53;;;27.64;43.89
64544;BME280;50936;51.660;5.616;2023-06-19T01:39:32;100555.56;;;27.62;43.84
64544;BME280;50936;51.660;5.616;2023-06-19T01:42:04;100558.31;;;27.62;44.02
64544;BME280;50936;51.660;5.616;2023-06-19T01:44:32;100564.94;;;27.61;44.07
64544;BME280;50936;51.660;5.616;2023-06-19T01:46:59;100571.31;;;27.62;44.16
64544;BME280;50936;51.660;5.616;2023-06-19T01:49:26;100564.94;;;27.61;43.97
64544;BME280;50936;51.660;5.616;2023-06-19T01:51:53;100564.72;;;27.63;44.12
64544;BME280;50936;51.660;5.616;2023-06-19T01:54:19;100570.47;;;27.61;44.11
64544;BME280;50936;51.660;5.616;2023-06-19T01:56:47;100575.19;;;27.61;44.02
64544;BME280;50936;51.660;5.616;2023-06-19T01:59:14;100587.13;;;27.61;44.28
64544;BME280;50936;51.660;5.616;2023-06-19T02:01:40;100588.84;;;27.62;44.47
64544;BME280;50936;51.660;5.616;2023-06-19T02:04:07;100587.13;;;27.61;44.35
64544;BME280;50936;51.660;5.616;2023-06-19T02:06:36;100594.38;;;27.62;44.40
64544;BME280;50936;51.660;5.616;2023-06-19T02:09:03;100580.72;;;27.61;44.58
64544;BME280;50936;51.660;5.616;2023-06-19T02:11:30;100581.56;;;27.61;44.69
64544;BME280;50936;51.660;5.616;2023-06-19T02:13:57;100586.28;;;27.61;44.49
64544;BME280;50936;51.660;5.616;2023-06-19T02:16:24;100587.13;;;27.61;44.46
64544;BME280;50936;51.660;5.616;2023-06-19T02:18:51;100591.00;;;27.60;44.41
64544;BME280;50936;51.660;5.616;2023-06-19T02:21:17;100589.28;;;27.59;44.43
64544;BME280;50936;51.660;5.616;2023-06-19T02:23:44;100589.28;;;27.59;44.49
64544;BME280;50936;51.660;5.616;2023-06-19T02:26:11;100603.16;;;27.59;44.44
64544;BME280;50936;51.660;5.616;2023-06-19T02:28:38;100603.97;;;27.60;44.70
64544;BME280;50936;51.660;5.616;2023-06-19T02:31:05;100600.38;;;27.59;44.70
64544;BME280;50936;51.660;5.616;2023-06-19T02:33:31;100594.81;;;27.59;44.88
64544;BME280;50936;51.660;5.616;2023-06-19T02:35:58;100600.38;;;27.59;44.83
64544;BME280;50936;51.660;5.616;2023-06-19T02:38:26;100602.09;;;27.60;44.91
64544;BME280;50936;51.660;5.616;2023-06-19T02:40:53;100605.91;;;27.59;44.94
64544;BME280;50936;51.660;5.616;2023-06-19T02:43:20;100607.63;;;27.60;44.81
64544;BME280;50936;51.660;5.616;2023-06-19T02:45:47;100600.38;;;27.59;45.07
64544;BME280;50936;51.660;5.616;2023-06-19T02:48:14;100598.66;;;27.58;45.09
64544;BME280;50936;51.660;5.616;2023-06-19T02:50:44;100602.53;;;27.57;44.99
64544;BME280;50936;51.660;5.616;2023-06-19T02:53:11;100603.38;;;27.58;45.18
64544;BME280;50936;51.660;5.616;2023-06-19T02:55:37;100600.81;;;27.56;45.43
64544;BME280;50936;51.660;5.616;2023-06-19T02:58:04;100602.53;;;27.57;45.49
64544;BME280;50936;51.660;5.616;2023-06-19T03:00:31;100600.81;;;27.56;45.59
64544;BME280;50936;51.660;5.616;2023-06-19T03:02:58;100600.81;;;27.56;45.39
64544;BME280;50936;51.660;5.616;2023-06-19T03:05:25;100611.91;;;27.56;45.60
64544;BME280;50936;51.660;5.616;2023-06-19T03:07:54;100609.13;;;27.56;45.73
64544;BME280;50936;51.660;5.616;2023-06-19T03:10:21;100630.25;;;27.57;45.56
64544;BME280;50936;51.660;5.616;2023-06-19T03:12:49;100626.88;;;27.55;45.84
64544;BME280;50936;51.660;5.616;2023-06-19T03:15:16;100615.78;;;27.55;45.97
64544;BME280;50936;51.660;5.616;2023-06-19T03:17:46;100614.06;;;27.54;46.10
64544;BME280;50936;51.660;5.616;2023-06-19T03:20:13;100621.31;;;27.55;46.02
64544;BME280;50936;51.660;5.616;2023-06-19T03:22:48;100621.75;;;27.52;46.13
64544;BME280;50936;51.660;5.616;2023-06-19T03:25:16;100623.47;;;27.53;46.24
64544;BME280;50936;51.660;5.616;2023-06-19T03:27:42;100633.69;;;27.53;46.92
64544;BME280;50936;51.660;5.616;2023-06-19T03:30:09;100631.13;;;27.51;46.81
64544;BME280;50936;51.660;5.616;2023-06-19T03:32:41;100629.88;;;27.47;47.57
64544;BME280;50936;51.660;5.616;2023-06-19T03:35:15;100634.63;;;27.40;47.95
64544;BME280;50936;51.660;5.616;2023-06-19T03:37:43;100628.28;;;27.33;48.19
64544;BME280;50936;51.660;5.616;2023-06-19T03:40:11;100645.81;;;27.26;48.42
64544;BME280;50936;51.660;5.616;2023-06-19T03:42:43;100643.28;;;27.18;48.94
64544;BME280;50936;51.660;5.616;2023-06-19T03:45:15;100648.00;;;27.11;49.16
64544;BME280;50936;51.660;5.616;2023-06-19T03:47:42;100652.25;;;27.07;49.39
64544;BME280;50936;51.660;5.616;2023-06-19T03:50:09;100653.16;;;27.01;49.85
64544;BME280;50936;51.660;5.616;2023-06-19T03:52:56;100655.72;;;26.96;49.88
64544;BME280;50936;51.660;5.616;2023-06-19T03:55:23;100663.84;;;26.91;50.26
64544;BME280;50936;51.660;5.616;2023-06-19T03:57:51;100665.97;;;26.88;50.60
64544;BME280;50936;51.660;5.616;2023-06-19T04:00:19;100673.03;;;26.84;50.62
64544;BME280;50936;51.660;5.616;2023-06-19T04:02:48;100660.91;;;26.79;50.62
64544;BME280;50936;51.660;5.616;2023-06-19T04:05:15;100667.75;;;26.76;51.18
64544;BME280;50936;51.660;5.616;2023-06-19T04:07:42;100669.03;;;26.74;51.31
64544;BME280;50936;51.660;5.616;2023-06-19T04:10:09;100664.78;;;26.71;51.53
64544;BME280;50936;51.660;5.616;2023-06-19T04:12:38;100676.28;;;26.68;51.69
64544;BME280;50936;51.660;5.616;2023-06-19T04:15:07;100683.97;;;26.66;52.22
64544;BME280;50936;51.660;5.616;2023-06-19T04:17:35;100677.16;;;26.62;52.12
64544;BME280;50936;51.660;5.616;2023-06-19T04:20:03;100679.69;;;26.57;52.30
64544;BME280;50936;51.660;5.616;2023-06-19T04:22:38;100678.44;;;26.53;52.54
64544;BME280;50936;51.660;5.616;2023-06-19T04:25:07;100686.09;;;26.50;53.02
64544;BME280;50936;51.660;5.616;2023-06-19T04:27:34;100686.53;;;26.47;53.34
64544;BME280;50936;51.660;5.616;2023-06-19T04:30:03;100699.72;;;26.45;53.56
64544;BME280;50936;51.660;5.616;2023-06-19T04:32:31;100695.25;;;26.44;53.60
64544;BME280;50936;51.660;5.616;2023-06-19T04:34:57;100696.97;;;26.45;53.68
64544;BME280;50936;51.660;5.616;2023-06-19T04:37:25;100693.56;;;26.43;53.83
64544;BME280;50936;51.660;5.616;2023-06-19T04:39:52;100702.28;;;26.40;54.10
64544;BME280;50936;51.660;5.616;2023-06-19T04:42:18;100706.13;;;26.39;54.54
64544;BME280;50936;51.660;5.616;2023-06-19T04:44:47;100715.50;;;26.38;54.70
64544;BME280;50936;51.660;5.616;2023-06-19T04:47:17;100707.19;;;26.38;54.67
64544;BME280;50936;51.660;5.616;2023-06-19T04:49:44;100718.47;;;26.37;54.84
64544;BME280;50936;51.660;5.616;2023-06-19T04:52:10;100710.38;;;26.35;55.09
64544;BME280;50936;51.660;5.616;2023-06-19T04:54:38;100718.06;;;26.33;55.17
64544;BME280;50936;51.660;5.616;2023-06-19T04:57:05;100711.88;;;26.31;55.44
64544;BME280;50936;51.660;5.616;2023-06-19T04:59:32;100718.47;;;26.30;55.66
64544;BME280;50936;51.660;5.616;2023-06-19T05:02:00;100715.94;;;26.28;55.82
64544;BME280;50936;51.660;5.616;2023-06-19T05:04:27;100711.66;;;26.26;56.07
64544;BME280;50936;51.660;5.616;2023-06-19T05:06:53;100714.84;;;26.23;56.59
64544;BME280;50936;51.660;5.616;2023-06-19T05:09:20;100712.53;;;26.20;56.85
64544;BME280;50936;51.660;5.616;2023-06-19T05:11:47;100721.47;;;26.22;57.09
64544;BME280;50936;51.660;5.616;2023-06-19T05:14:13;100722.53;;;26.21;57.28
64544;BME280;50936;51.660;5.616;2023-06-19T05:16:41;100716.34;;;26.19;57.42
64544;BME280;50936;51.660;5.616;2023-06-19T05:19:10;100716.75;;;26.16;57.83
64544;BME280;50936;51.660;5.616;2023-06-19T05:21:37;100717.22;;;26.12;58.10
64544;BME280;50936;51.660;5.616;2023-06-19T05:24:03;100724.25;;;26.08;58.14
64544;BME280;50936;51.660;5.616;2023-06-19T05:26:30;100724.03;;;26.03;58.44
64544;BME280;50936;51.660;5.616;2023-06-19T05:28:57;100728.03;;;26.01;58.95
64544;BME280;50936;51.660;5.616;2023-06-19T05:31:24;100728.28;;;25.99;59.11
64544;BME280;50936;51.660;5.616;2023-06-19T05:33:50;100732.50;;;25.95;59.45
64544;BME280;50936;51.660;5.616;2023-06-19T05:36:17;100729.09;;;25.93;59.46
64544;BME280;50936;51.660;5.616;2023-06-19T05:38:44;100732.91;;;25.92;59.92
64544;BME280;50936;51.660;5.616;2023-06-19T05:41:13;100731.19;;;25.91;59.81
64544;BME280;50936;51.660;5.616;2023-06-19T05:43:40;100723.09;;;25.89;59.86
64544;BME280;50936;51.660;5.616;2023-06-19T05:46:07;100730.13;;;25.85;60.12
64544;BME280;50936;51.660;5.616;2023-06-19T05:48:34;100747.34;;;25.81;60.25
64544;BME280;50936;51.660;5.616;2023-06-19T05:51:01;100748.81;;;25.77;60.79
64544;BME280;50936;51.660;5.616;2023-06-19T05:53:27;100748.19;;;25.74;60.82
64544;BME280;50936;51.660;5.616;2023-06-19T05:55:54;100750.31;;;25.72;61.04
64544;BME280;50936;51.660;5.616;2023-06-19T05:58:21;100744.56;;;25.67;61.24
64544;BME280;50936;51.660;5.616;2023-06-19T06:00:48;100741.78;;;25.67;61.59
64544;BME280;50936;51.660;5.616;2023-06-19T06:03:15;100755.81;;;25.66;61.83
64544;BME280;50936;51.660;5.616;2023-06-19T06:05:42;100760.50;;;25.65;61.76
64544;BME280;50936;51.660;5.616;2023-06-19T06:08:09;100760.50;;;25.65;62.15
64544;BME280;50936;51.660;5.616;2023-06-19T06:10:36;100762.00;;;25.68;62.23
64544;BME280;50936;51.660;5.616;2023-06-19T06:13:04;100762.66;;;25.70;62.20
64544;BME280;50936;51.660;5.616;2023-06-19T06:15:31;100759.66;;;25.71;61.97
64544;BME280;50936;51.660;5.616;2023-06-19T06:17:57;100769.28;;;25.76;62.43
64544;BME280;50936;51.660;5.616;2023-06-19T06:20:24;100762.25;;;25.80;62.11
64544;BME280;50936;51.660;5.616;2023-06-19T06:22:52;100770.13;;;25.83;62.42
64544;BME280;50936;51.660;5.616;2023-06-19T06:25:19;100772.91;;;25.83;62.09
64544;BME280;50936;51.660;5.616;2023-06-19T06:27:47;100778.00;;;25.86;62.06
64544;BME280;50936;51.660;5.616;2023-06-19T06:30:13;100785.88;;;25.89;61.95
64544;BME280;50936;51.660;5.616;2023-06-19T06:32:42;100789.97;;;25.93;61.93
64544;BME280;50936;51.660;5.616;2023-06-19T06:35:09;100798.91;;;25.95;61.79
64544;BME280;50936;51.660;5.616;2023-06-19T06:37:35;100796.16;;;25.95;61.01
64544;BME280;50936;51.660;5.616;2023-06-19T06:40:02;100797.22;;;25.94;60.78
64544;BME280;50936;51.660;5.616;2023-06-19T06:42:34;100797.59;;;25.91;60.38
64544;BME280;50936;51.660;5.616;2023-06-19T06:45:01;100797.59;;;25.91;60.13
64544;BME280;50936;51.660;5.616;2023-06-19T06:47:28;100800.38;;;25.91;59.92
64544;BME280;50936;51.660;5.616;2023-06-19T06:49:54;100809.50;;;25.91;60.02
64544;BME280;50936;51.660;5.616;2023-06-19T06:52:21;100807.63;;;25.92;59.69
64544;BME280;50936;51.660;5.616;2023-06-19T06:54:48;100813.81;;;25.94;59.40
64544;BME280;50936;51.660;5.616;2023-06-19T06:57:15;100818.47;;;25.93;59.10
64544;BME280;50936;51.660;5.616;2023-06-19T06:59:44;100826.78;;;25.93;58.76
64544;BME280;50936;51.660;5.616;2023-06-19T07:02:11;100824.69;;;25.96;59.00
64544;BME280;50936;51.660;5.616;2023-06-19T07:04:37;100824.44;;;25.97;58.48
64544;BME280;50936;51.660;5.616;2023-06-19T07:07:04;100820.63;;;25.98;58.51
64544;BME280;50936;51.660;5.616;2023-06-19T07:09:32;100826.81;;;26.00;58.35
64544;BME280;50936;51.660;5.616;2023-06-19T07:11:59;100827.44;;;26.02;58.09
64544;BME280;50936;51.660;5.616;2023-06-19T07:14:28;100829.81;;;26.05;58.08
64544;BME280;50936;51.660;5.616;2023-06-19T07:16:55;100835.13;;;26.07;57.88
64544;BME280;50936;51.660;5.616;2023-06-19T07:19:22;100836.63;;;26.09;57.96
64544;BME280;50936;51.660;5.616;2023-06-19T07:21:52;100841.75;;;26.12;57.64
64544;BME280;50936;51.660;5.616;2023-06-19T07:24:19;100838.53;;;26.16;57.40
64544;BME280;50936;51.660;5.616;2023-06-19T07:26:46;100847.06;;;26.21;57.68
64544;BME280;50936;51.660;5.616;2023-06-19T07:29:14;100846.66;;;26.24;57.39
64544;BME280;50936;51.660;5.616;2023-06-19T07:31:40;100851.78;;;26.27;57.33
64544;BME280;50936;51.660;5.616;2023-06-19T07:34:09;100856.03;;;26.29;57.42
64544;BME280;50936;51.660;5.616;2023-06-19T07:36:36;100860.28;;;26.32;56.80
64544;BME280;50936;51.660;5.616;2023-06-19T07:39:03;100855.44;;;26.34;57.03
64544;BME280;50936;51.660;5.616;2023-06-19T07:41:29;100859.47;;;26.38;56.52
64544;BME280;50936;51.660;5.616;2023-06-19T07:43:56;100869.25;;;26.41;56.53
64544;BME280;50936;51.660;5.616;2023-06-19T07:46:23;100865.44;;;26.42;56.23
64544;BME280;50936;51.660;5.616;2023-06-19T07:48:50;100864.16;;;26.44;56.46
64544;BME280;50936;51.660;5.616;2023-06-19T07:51:17;100867.56;;;26.46;56.58
64544;BME280;50936;51.660;5.616;2023-06-19T07:53:44;100869.91;;;26.49;56.38
64544;BME280;50936;51.660;5.616;2023-06-19T07:56:10;100874.41;;;26.50;56.25
64544;BME280;50936;51.660;5.616;2023-06-19T07:58:37;100865.88;;;26.52;56.20
64544;BME280;50936;51.660;5.616;2023-06-19T08:01:04;100874.84;;;26.54;56.21
64544;BME280;50936;51.660;5.616;2023-06-19T08:03:31;100871.00;;;26.55;55.81
64544;BME280;50936;51.660;5.616;2023-06-19T08:05:58;100869.31;;;26.54;55.55
64544;BME280;50936;51.660;5.616;2023-06-19T08:08:24;100873.56;;;26.57;55.60
64544;BME280;50936;51.660;5.616;2023-06-19T08:10:52;100881.66;;;26.58;55.40
64544;BME280;50936;51.660;5.616;2023-06-19T08:13:18;100874.84;;;26.61;55.11
64544;BME280;50936;51.660;5.616;2023-06-19T08:15:46;100873.81;;;26.62;55.20
64544;BME280;50936;51.660;5.616;2023-06-19T08:18:13;100881.69;;;26.65;55.28
64544;BME280;50936;51.660;5.616;2023-06-19T08:20:40;100877.84;;;26.66;54.90
64544;BME280;50936;51.660;5.616;2023-06-19T08:23:06;100878.50;;;26.68;55.00
64544;BME280;50936;51.660;5.616;2023-06-19T08:25:33;100882.97;;;26.69;54.85
64544;BME280;50936;51.660;5.616;2023-06-19T08:28:00;100891.06;;;26.70;54.71
64544;BME280;50936;51.660;5.616;2023-06-19T08:30:27;100895.34;;;26.73;54.61
64544;BME280;50936;51.660;5.616;2023-06-19T08:32:54;100895.34;;;26.73;54.54
64544;BME280;50936;51.660;5.616;2023-06-19T08:35:20;100893.19;;;26.75;54.44
64544;BME280;50936;51.660;5.616;2023-06-19T08:37:47;100879.97;;;26.77;54.36
64544;BME280;50936;51.660;5.616;2023-06-19T08:40:14;100880.63;;;26.79;54.32
64544;BME280;50936;51.660;5.616;2023-06-19T08:42:41;100879.56;;;26.80;54.20
64544;BME280;50936;51.660;5.616;2023-06-19T08:45:10;100886.78;;;26.81;54.02
64544;BME280;50936;51.660;5.616;2023-06-19T08:47:40;100894.06;;;26.82;54.10
64544;BME280;50936;51.660;5.616;2023-06-19T08:50:07;100895.75;;;26.83;53.91
64544;BME280;50936;51.660;5.616;2023-06-19T08:52:34;100903.00;;;26.84;53.87
64544;BME280;50936;51.660;5.616;2023-06-19T08:55:02;100911.94;;;26.86;53.78
64544;BME280;50936;51.660;5.616;2023-06-19T08:57:38;100902.59;;;26.87;53.68
64544;BME280;50936;51.660;5.616;2023-06-19T09:00:06;100913.69;;;26.87;53.64
64544;BME280;50936;51.660;5.616;2023-06-19T09:02:45;100910.69;;;26.89;53.50
64544;BME280;50936;51.660;5.616;2023-06-19T09:05:26;100911.53;;;26.89;53.64
64544;BME280;50936;51.660;5.616;2023-06-19T09:07:58;100914.09;;;26.91;53.49
64544;BME280;50936;51.660;5.616;2023-06-19T09:10:30;100922.22;;;26.93;53.49
64544;BME280;50936;51.660;5.616;2023-06-19T09:13:02;100928.59;;;26.93;53.29
64544;BME280;50936;51.660;5.616;2023-06-19T09:15:35;100932.00;;;26.95;53.47
64544;BME280;50936;51.660;5.616;2023-06-19T09:18:10;100938.38;;;26.96;53.44
64544;BME280;50936;51.660;5.616;2023-06-19T09:20:42;100930.72;;;26.98;53.24
64544;BME280;50936;51.660;5.616;2023-06-19T09:23:17;100934.13;;;27.00;53.11
64544;BME280;50936;51.660;5.616;2023-06-19T09:25:48;100937.75;;;27.00;52.81
64544;BME280;50936;51.660;5.616;2023-06-19T09:28:27;100928.16;;;27.03;52.96
64544;BME280;50936;51.660;5.616;2023-06-19T09:33:32;100946.91;;;27.01;52.93
64544;BME280;50936;51.660;5.616;2023-06-19T09:36:01;100951.41;;;27.02;52.91
64544;BME280;50936;51.660;5.616;2023-06-19T09:38:30;100943.09;;;27.02;52.98
64544;BME280;50936;51.660;5.616;2023-06-19T09:41:01;100950.34;;;27.03;52.78
64544;BME280;50936;51.660;5.616;2023-06-19T09:43:38;100949.91;;;27.06;52.80
64544;BME280;50936;51.660;5.616;2023-06-19T09:46:06;100949.91;;;27.06;52.72
64544;BME280;50936;51.660;5.616;2023-06-19T09:48:34;100955.03;;;27.09;52.56
64544;BME280;50936;51.660;5.616;2023-06-19T09:51:18;100957.56;;;27.11;52.47
64544;BME280;50936;51.660;5.616;2023-06-19T09:53:50;100959.09;;;27.13;52.60
64544;BME280;50936;51.660;5.616;2023-06-19T09:56:17;100956.31;;;27.13;52.29
64544;BME280;50936;51.660;5.616;2023-06-19T09:58:50;100958.00;;;27.14;52.28
64544;BME280;50936;51.660;5.616;2023-06-19T10:01:18;100961.41;;;27.16;52.11
64544;BME280;50936;51.660;5.616;2023-06-19T10:03:46;100957.59;;;27.17;52.42
64544;BME280;50936;51.660;5.616;2023-06-19T10:06:14;100956.53;;;27.18;52.10
64544;BME280;50936;51.660;5.616;2023-06-19T10:08:46;100955.44;;;27.19;51.91
64544;BME280;50936;51.660;5.616;2023-06-19T10:11:13;100951.63;;;27.20;52.04
64544;BME280;50936;51.660;5.616;2023-06-19T10:13:41;100951.41;;;27.22;51.75
64544;BME280;50936;51.660;5.616;2023-06-19T10:16:20;100958.44;;;27.24;52.04
64544;BME280;50936;51.660;5.616;2023-06-19T10:18:47;100950.13;;;27.24;51.60
64544;BME280;50936;51.660;5.616;2023-06-19T10:21:21;100960.13;;;27.25;51.71
64544;BME280;50936;51.660;5.616;2023-06-19T10:23:53;100955.66;;;27.24;51.84
64544;BME280;50936;51.660;5.616;2023-06-19T10:26:30;100950.31;;;27.23;51.80
64544;BME280;50936;51.660;5.616;2023-06-19T10:28:57;100961.00;;;27.19;51.87
64544;BME280;50936;51.660;5.616;2023-06-19T10:31:23;100957.59;;;27.17;51.91
64544;BME280;50936;51.660;5.616;2023-06-19T10:33:55;100961.00;;;27.19;51.73
64544;BME280;50936;51.660;5.616;2023-06-19T10:36:23;100953.97;;;27.10;51.77
64544;BME280;50936;51.660;5.616;2023-06-19T10:38:52;100961.63;;;27.08;51.61
64544;BME280;50936;51.660;5.616;2023-06-19T10:41:22;100952.69;;;27.06;51.28
64544;BME280;50936;51.660;5.616;2023-06-19T10:43:56;100959.50;;;27.03;51.06
64544;BME280;50936;51.660;5.616;2023-06-19T10:46:24;100960.78;;;27.01;50.64
64544;BME280;50936;51.660;5.616;2023-06-19T10:48:55;100963.97;;;26.98;50.23
64544;BME280;50936;51.660;5.616;2023-06-19T10:51:28;100960.56;;;26.96;49.95
64544;BME280;50936;51.660;5.616;2023-06-19T10:53:55;100959.91;;;26.94;49.71
64544;BME280;50936;51.660;5.616;2023-06-19T10:56:23;100958.22;;;26.93;49.59
64544;BME280;50936;51.660;5.616;2023-06-19T10:58:59;100957.56;;;26.91;49.57
64544;BME280;50936;51.660;5.616;2023-06-19T11:04:03;100959.06;;;26.86;48.55
64544;BME280;50936;51.660;5.616;2023-06-19T11:06:30;100954.59;;;26.85;48.62
64544;BME280;50936;51.660;5.616;2023-06-19T11:08:57;100961.19;;;26.84;47.80
64544;BME280;50936;51.660;5.616;2023-06-19T11:11:34;100972.47;;;26.83;47.96
64544;BME280;50936;51.660;5.616;2023-06-19T11:14:01;100958.84;;;26.81;47.76
64544;BME280;50936;51.660;5.616;2023-06-19T11:16:28;100960.13;;;26.79;47.29
64544;BME280;50936;51.660;5.616;2023-06-19T11:18:59;100964.81;;;26.78;47.35
64544;BME280;50936;51.660;5.616;2023-06-19T11:21:34;100950.31;;;26.76;47.23
64544;BME280;50936;51.660;5.616;2023-06-19T11:24:05;100965.22;;;26.75;46.90
64544;BME280;50936;51.660;5.616;2023-06-19T11:26:43;100964.38;;;26.75;46.63
64544;BME280;50936;51.660;5.616;2023-06-19T11:29:24;100961.81;;;26.73;46.64
64544;BME280;50936;51.660;5.616;2023-06-19T11:31:54;100948.19;;;26.72;46.48
64544;BME280;50936;51.660;5.616;2023-06-19T11:34:34;100957.34;;;26.72;46.39
64544;BME280;50936;51.660;5.616;2023-06-19T11:37:16;100952.00;;;26.70;46.52
64544;BME280;50936;51.660;5.616;2023-06-19T11:39:45;100940.06;;;26.70;46.29
64544;BME280;50936;51.660;5.616;2023-06-19T11:42:12;100957.78;;;26.69;46.19
64544;BME280;50936;51.660;5.616;2023-06-19T11:44:54;100940.06;;;26.70;46.26
64544;BME280;50936;51.660;5.616;2023-06-19T11:47:22;100939.44;;;26.68;45.73
64544;BME280;50936;51.660;5.616;2023-06-19T11:49:50;100935.81;;;26.67;45.87
64544;BME280;50936;51.660;5.616;2023-06-19T11:52:17;100933.91;;;26.68;45.66
64544;BME280;50936;51.660;5.616;2023-06-19T11:54:46;100936.03;;;26.66;45.58
64544;BME280;50936;51.660;5.616;2023-06-19T11:57:13;100929.44;;;26.67;45.62
64544;BME280;50936;51.660;5.616;2023-06-19T11:59:40;100934.97;;;26.67;45.50
64544;BME280;50936;51.660;5.616;2023-06-19T12:02:08;100934.09;;;26.66;45.40
64544;BME280;50936;51.660;5.616;2023-06-19T12:04:35;100938.78;;;26.66;45.02
64544;BME280;50936;51.660;5.616;2023-06-19T12:07:03;100929.63;;;26.65;45.00
64544;BME280;50936;51.660;5.616;2023-06-19T12:09:30;100931.53;;;26.65;45.33
64544;BME280;50936;51.660;5.616;2023-06-19T12:12:01;100934.31;;;26.65;45.09
64544;BME280;50936;51.660;5.616;2023-06-19T12:14:27;100926.00;;;26.65;45.01
64544;BME280;50936;51.660;5.616;2023-06-19T12:16:54;100924.31;;;26.64;44.77
64544;BME280;50936;51.660;5.616;2023-06-19T12:19:21;100927.28;;;26.62;44.75
64544;BME280;50936;51.660;5.616;2023-06-19T12:21:48;100929.00;;;26.63;44.49
64544;BME280;50936;51.660;5.616;2023-06-19T12:24:15;100933.66;;;26.63;44.55
64544;BME280;50936;51.660;5.616;2023-06-19T12:26:41;100923.88;;;26.60;44.59
64544;BME280;50936;51.660;5.616;2023-06-19T12:29:08;100944.75;;;26.63;44.48
64544;BME280;50936;51.660;5.616;2023-06-19T12:31:35;100943.06;;;26.62;44.19
64544;BME280;50936;51.660;5.616;2023-06-19T12:34:05;100941.34;;;26.61;44.11
64544;BME280;50936;51.660;5.616;2023-06-19T12:36:55;100941.34;;;26.61;44.17
64544;BME280;50936;51.660;5.616;2023-06-19T12:39:24;100949.66;;;26.61;44.03
64544;BME280;50936;51.660;5.616;2023-06-19T12:41:52;100945.16;;;26.60;44.17
64544;BME280;50936;51.660;5.616;2023-06-19T12:44:21;100939.63;;;26.60;43.78
64544;BME280;50936;51.660;5.616;2023-06-19T12:46:48;100942.38;;;26.60;44.00
64544;BME280;50936;51.660;5.616;2023-06-19T12:49:14;100947.94;;;26.60;44.19
64544;BME280;50936;51.660;5.616;2023-06-19T12:51:41;100945.16;;;26.60;43.86
64544;BME280;50936;51.660;5.616;2023-06-19T12:54:08;100941.34;;;26.61;43.92
64544;BME280;50936;51.660;5.616;2023-06-19T12:56:35;100937.72;;;26.60;43.89
64544;BME280;50936;51.660;5.616;2023-06-19T12:59:02;100934.06;;;26.60;43.91
64544;BME280;50936;51.660;5.616;2023-06-19T13:01:29;100930.25;;;26.61;43.99
64544;BME280;50936;51.660;5.616;2023-06-19T13:03:55;100931.09;;;26.61;44.06